Time;durP1;ratioP1;P1;durP2;ratioP2;P2;SDS_P1;SDS_P2;PMS_P1;PMS_P2;Temp;Humidity;BMP_temperature;BMP_pressure;BME280_temperature;BME280_humidity;BME280_pressure;Samples;Min_cycle;Max_cycle;Signal;HPM_P1;HPM_P2
2023/04/06 00:01:52;;;;;;;13.10;4.87;;;;;;;;;;5090436;28;20400;-44
2023/04/06 00:04:19;;;;;;;12.23;4.63;;;;;;;;;;5077427;28;20071;-45
2023/04/06 00:06:47;;;;;;;11.30;4.57;;;;;;;;;;5090280;28;20059;-44
2023/04/06 00:09:16;;;;;;;13.90;4.35;;;;;;;;;;5088223;28;20149;-44
2023/04/06 00:11:44;;;;;;;9.95;4.07;;;;;;;;;;5081418;28;20193;-43
2023/04/06 00:14:11;;;;;;;13.27;4.97;;;;;;;;;;5090401;28;20050;-43
2023/04/06 00:16:39;;;;;;;10.02;4.20;;;;;;;;;;5075005;28;20123;-43
2023/04/06 00:19:07;;;;;;;10.57;4.18;;;;;;;;;;5089889;28;20096;-45
2023/04/06 00:21:35;;;;;;;10.50;4.47;;;;;;;;;;5086953;28;20028;-46
2023/04/06 00:24:03;;;;;;;10.13;4.20;;;;;;;;;;5093868;28;20135;-43
2023/04/06 00:26:32;;;;;;;10.50;4.20;;;;;;;;;;5093182;28;20040;-46
2023/04/06 00:29:00;;;;;;;10.15;3.45;;;;;;;;;;5088549;27;20123;-45
2023/04/06 00:31:28;;;;;;;11.43;4.70;;;;;;;;;;5092450;28;20118;-43
2023/04/06 00:33:56;;;;;;;11.25;4.35;;;;;;;;;;5085642;28;20047;-45
2023/04/06 00:36:23;;;;;;;10.05;4.40;;;;;;;;;;5089395;28;20549;-43
2023/04/06 00:38:51;;;;;;;10.87;3.90;;;;;;;;;;5082018;28;20074;-45
2023/04/06 00:41:20;;;;;;;9.57;3.83;;;;;;;;;;5097432;28;20148;-46
2023/04/06 00:43:49;;;;;;;10.00;4.35;;;;;;;;;;5086271;28;20047;-46
2023/04/06 00:46:17;;;;;;;10.98;4.05;;;;;;;;;;5082206;28;20040;-45
2023/04/06 00:48:45;;;;;;;10.18;4.05;;;;;;;;;;5078497;28;20401;-45
2023/04/06 00:51:12;;;;;;;8.80;3.17;;;;;;;;;;5089647;28;20123;-45
2023/04/06 00:53:40;;;;;;;13.05;4.55;;;;;;;;;;5090022;28;20336;-46
2023/04/06 00:56:09;;;;;;;10.70;4.25;;;;;;;;;;5092958;28;20062;-46
2023/04/06 00:58:38;;;;;;;12.82;4.18;;;;;;;;;;5084401;28;20122;-44
2023/04/06 01:01:07;;;;;;;12.68;4.97;;;;;;;;;;5076993;28;20123;-48
2023/04/06 01:03:35;;;;;;;12.20;4.27;;;;;;;;;;5079121;28;20071;-44
2023/04/06 01:06:03;;;;;;;8.10;3.08;;;;;;;;;;5088920;28;20044;-43
2023/04/06 01:08:30;;;;;;;11.45;4.93;;;;;;;;;;5088104;28;20329;-43
2023/04/06 01:11:00;;;;;;;10.60;5.03;;;;;;;;;;5085105;28;20134;-45
2023/04/06 01:13:28;;;;;;;11.68;4.32;;;;;;;;;;5094468;28;20127;-44
2023/04/06 01:15:56;;;;;;;11.43;4.67;;;;;;;;;;5094558;28;20047;-45
2023/04/06 01:18:27;;;;;;;11.82;4.75;;;;;;;;;;5080593;28;20035;-45
2023/04/06 01:20:55;;;;;;;12.20;5.00;;;;;;;;;;5089729;28;20043;-46
2023/04/06 01:23:24;;;;;;;13.20;5.05;;;;;;;;;;5082889;28;20102;-44
2023/04/06 01:25:52;;;;;;;11.40;4.55;;;;;;;;;;5088042;28;20048;-43
2023/04/06 01:28:19;;;;;;;10.70;4.20;;;;;;;;;;5087074;28;20603;-45
2023/04/06 01:30:47;;;;;;;10.65;4.38;;;;;;;;;;5078436;28;20040;-46
2023/04/06 01:33:15;;;;;;;12.00;3.97;;;;;;;;;;5086379;28;20039;-45
2023/04/06 01:35:43;;;;;;;10.82;4.80;;;;;;;;;;5082417;28;20168;-45
2023/04/06 01:38:11;;;;;;;11.27;4.88;;;;;;;;;;5091821;28;20515;-43
2023/04/06 01:40:40;;;;;;;12.47;4.47;;;;;;;;;;5075809;28;20337;-48
2023/04/06 01:43:08;;;;;;;9.98;4.38;;;;;;;;;;5085448;28;20112;-47
2023/04/06 01:45:35;;;;;;;11.35;4.30;;;;;;;;;;5075395;28;20047;-43
2023/04/06 01:48:03;;;;;;;11.38;4.00;;;;;;;;;;5084951;28;20035;-44
2023/04/06 01:50:31;;;;;;;13.77;4.55;;;;;;;;;;5090496;28;20063;-44
2023/04/06 01:52:58;;;;;;;12.00;4.20;;;;;;;;;;5094567;28;20063;-45
2023/04/06 01:55:26;;;;;;;11.02;4.60;;;;;;;;;;5085338;28;20122;-44
2023/04/06 01:57:55;;;;;;;12.88;4.63;;;;;;;;;;5087788;28;20044;-43
2023/04/06 02:00:23;;;;;;;11.45;4.22;;;;;;;;;;5080957;28;20464;-44
2023/04/06 02:02:50;;;;;;;11.90;5.38;;;;;;;;;;5086308;28;20040;-44
2023/04/06 02:05:18;;;;;;;10.93;4.50;;;;;;;;;;5085656;28;20522;-44
2023/04/06 02:07:46;;;;;;;13.68;5.50;;;;;;;;;;5075259;28;20119;-45
2023/04/06 02:10:14;;;;;;;10.10;4.00;;;;;;;;;;5091784;28;20035;-44
2023/04/06 02:12:41;;;;;;;12.20;4.28;;;;;;;;;;5087219;28;20082;-45
2023/04/06 02:15:13;;;;;;;12.20;4.97;;;;;;;;;;5088095;28;20651;-45
2023/04/06 02:17:40;;;;;;;12.37;5.40;;;;;;;;;;5089810;28;20606;-45
2023/04/06 02:20:09;;;;;;;14.70;4.97;;;;;;;;;;5079297;28;20505;-45
2023/04/06 02:22:36;;;;;;;11.60;4.68;;;;;;;;;;5083756;28;20062;-44
2023/04/06 02:25:04;;;;;;;13.68;5.30;;;;;;;;;;5064663;28;20043;-45
2023/04/06 02:27:32;;;;;;;15.43;5.18;;;;;;;;;;5091046;28;20569;-44
2023/04/06 02:29:59;;;;;;;12.73;5.53;;;;;;;;;;5086029;28;20290;-44
2023/04/06 02:32:28;;;;;;;12.32;4.65;;;;;;;;;;5089962;28;20058;-43
2023/04/06 02:34:56;;;;;;;11.95;5.35;;;;;;;;;;5086293;28;20043;-45
2023/04/06 02:37:24;;;;;;;11.35;4.63;;;;;;;;;;5073960;28;20576;-44
2023/04/06 02:39:51;;;;;;;11.75;4.43;;;;;;;;;;5091091;28;20032;-43
2023/04/06 02:42:19;;;;;;;13.77;5.47;;;;;;;;;;5084581;28;20035;-43
2023/04/06 02:44:47;;;;;;;13.52;4.78;;;;;;;;;;5083701;28;20134;-45
2023/04/06 02:47:14;;;;;;;11.15;4.88;;;;;;;;;;5091906;28;20233;-43
2023/04/06 02:49:44;;;;;;;12.52;4.85;;;;;;;;;;5080391;28;20130;-43
2023/04/06 02:52:14;;;;;;;10.27;4.57;;;;;;;;;;5088256;28;20039;-43
2023/04/06 02:54:42;;;;;;;13.73;5.13;;;;;;;;;;5082998;28;20036;-45
2023/04/06 02:57:10;;;;;;;13.90;5.20;;;;;;;;;;5091265;28;20096;-43
2023/04/06 02:59:37;;;;;;;13.82;4.78;;;;;;;;;;5082289;28;20062;-47
2023/04/06 03:02:05;;;;;;;12.30;4.82;;;;;;;;;;5092421;28;20497;-43
2023/04/06 03:04:33;;;;;;;13.27;5.40;;;;;;;;;;5086098;28;20087;-43
2023/04/06 03:07:02;;;;;;;10.77;4.50;;;;;;;;;;5083462;28;20135;-44
2023/04/06 03:09:30;;;;;;;11.80;5.22;;;;;;;;;;5086534;28;20081;-43
2023/04/06 03:11:58;;;;;;;13.57;5.05;;;;;;;;;;5078026;28;20119;-43
2023/04/06 03:14:25;;;;;;;10.40;4.05;;;;;;;;;;5078056;28;20452;-43
2023/04/06 03:16:53;;;;;;;10.43;3.97;;;;;;;;;;5084811;28;20130;-42
2023/04/06 03:19:21;;;;;;;11.53;4.77;;;;;;;;;;5077794;28;20028;-44
2023/04/06 03:21:48;;;;;;;10.45;4.22;;;;;;;;;;5080863;28;20490;-43
2023/04/06 03:24:17;;;;;;;12.32;3.88;;;;;;;;;;5081964;28;20490;-42
2023/04/06 03:26:45;;;;;;;11.18;3.90;;;;;;;;;;5082563;28;20083;-43
2023/04/06 03:29:13;;;;;;;9.82;3.47;;;;;;;;;;5083776;28;20048;-44
2023/04/06 03:31:41;;;;;;;9.23;2.93;;;;;;;;;;5068340;28;20521;-44
2023/04/06 03:34:08;;;;;;;7.82;2.58;;;;;;;;;;5082991;28;20050;-44
2023/04/06 03:36:36;;;;;;;10.02;3.65;;;;;;;;;;5081231;28;20089;-43
2023/04/06 03:39:04;;;;;;;9.40;3.10;;;;;;;;;;5080628;28;20087;-44
2023/04/06 03:41:33;;;;;;;8.52;3.15;;;;;;;;;;5084595;28;20043;-43
2023/04/06 03:44:00;;;;;;;9.67;2.93;;;;;;;;;;5081580;28;20127;-43
2023/04/06 03:46:28;;;;;;;9.40;2.80;;;;;;;;;;5084713;28;20035;-43
2023/04/06 03:48:56;;;;;;;6.20;1.92;;;;;;;;;;5080598;28;20048;-44
2023/04/06 03:51:23;;;;;;;6.95;2.50;;;;;;;;;;5060362;28;20876;-43
2023/04/06 03:53:51;;;;;;;5.80;1.70;;;;;;;;;;5087713;28;20417;-43
2023/04/06 03:56:19;;;;;;;6.77;1.43;;;;;;;;;;5084572;28;20388;-43
2023/04/06 03:58:50;;;;;;;5.40;1.42;;;;;;;;;;5080296;28;20043;-43
2023/04/06 04:01:18;;;;;;;5.30;1.27;;;;;;;;;;5078472;28;20067;-44
2023/04/06 04:03:46;;;;;;;5.32;1.55;;;;;;;;;;5082830;28;20042;-42
2023/04/06 04:06:16;;;;;;;5.45;1.33;;;;;;;;;;5085198;28;20043;-45
2023/04/06 04:08:44;;;;;;;5.87;1.73;;;;;;;;;;5087204;28;20147;-43
2023/04/06 04:11:12;;;;;;;5.20;1.33;;;;;;;;;;5078119;28;20040;-43
2023/04/06 04:13:39;;;;;;;8.65;1.80;;;;;;;;;;5076710;28;20119;-42
2023/04/06 04:16:08;;;;;;;6.60;1.27;;;;;;;;;;5083570;28;20119;-43
2023/04/06 04:18:36;;;;;;;5.20;1.30;;;;;;;;;;5081856;28;20122;-44
2023/04/06 04:21:04;;;;;;;5.33;1.00;;;;;;;;;;5073387;28;20035;-42
2023/04/06 04:23:32;;;;;;;5.78;1.48;;;;;;;;;;5086334;28;20093;-42
2023/04/06 04:25:59;;;;;;;4.93;1.60;;;;;;;;;;5085917;28;20048;-43
2023/04/06 04:28:27;;;;;;;5.32;1.23;;;;;;;;;;5076310;28;20124;-42
2023/04/06 04:30:55;;;;;;;5.25;1.65;;;;;;;;;;5092425;28;20035;-43
2023/04/06 04:33:24;;;;;;;5.37;1.10;;;;;;;;;;5086631;28;20112;-45
2023/04/06 04:35:51;;;;;;;5.20;1.02;;;;;;;;;;5075234;28;20119;-43
2023/04/06 04:38:19;;;;;;;4.38;0.85;;;;;;;;;;5086700;28;20051;-43
2023/04/06 04:40:47;;;;;;;5.57;1.10;;;;;;;;;;5074005;28;20116;-43
2023/04/06 04:43:14;;;;;;;4.40;0.88;;;;;;;;;;5084599;28;20561;-42
2023/04/06 04:45:42;;;;;;;4.00;0.70;;;;;;;;;;5079535;28;20056;-43
2023/04/06 04:48:10;;;;;;;6.00;0.90;;;;;;;;;;5087775;28;20392;-43
2023/04/06 04:50:40;;;;;;;7.40;1.10;;;;;;;;;;5082435;28;20131;-43
2023/04/06 04:53:08;;;;;;;5.15;1.27;;;;;;;;;;5083783;28;20585;-45
2023/04/06 04:55:36;;;;;;;4.95;1.10;;;;;;;;;;5090414;28;20136;-43
2023/04/06 04:58:03;;;;;;;5.47;1.30;;;;;;;;;;5075198;28;20105;-44
2023/04/06 05:00:31;;;;;;;8.02;1.35;;;;;;;;;;5088244;28;20081;-43
2023/04/06 05:02:59;;;;;;;6.68;1.65;;;;;;;;;;5083169;28;20112;-43
2023/04/06 05:05:26;;;;;;;10.15;2.00;;;;;;;;;;5081353;28;20047;-43
2023/04/06 05:07:55;;;;;;;6.43;1.58;;;;;;;;;;5086620;28;20060;-43
2023/04/06 05:10:23;;;;;;;7.20;1.70;;;;;;;;;;5081456;28;20032;-43
2023/04/06 05:12:51;;;;;;;7.47;1.90;;;;;;;;;;5085618;28;20071;-44
2023/04/06 05:15:18;;;;;;;10.27;1.15;;;;;;;;;;5087299;28;20093;-44
2023/04/06 05:17:47;;;;;;;9.52;1.92;;;;;;;;;;5076358;28;20101;-43
2023/04/06 05:20:15;;;;;;;6.68;1.52;;;;;;;;;;5090814;28;20043;-44
2023/04/06 05:22:43;;;;;;;7.10;1.73;;;;;;;;;;5088040;28;20139;-43
2023/04/06 05:25:12;;;;;;;10.48;1.15;;;;;;;;;;5092659;28;20119;-43
2023/04/06 05:27:40;;;;;;;10.90;1.27;;;;;;;;;;5085005;28;20035;-44
2023/04/06 05:30:09;;;;;;;6.72;1.20;;;;;;;;;;5094745;28;20051;-43
2023/04/06 05:32:36;;;;;;;7.95;0.93;;;;;;;;;;5079307;28;20104;-43
2023/04/06 05:35:05;;;;;;;5.93;0.87;;;;;;;;;;5087355;28;20039;-43
2023/04/06 05:37:32;;;;;;;8.35;1.10;;;;;;;;;;5082625;28;20036;-43
2023/04/06 05:40:00;;;;;;;6.60;0.80;;;;;;;;;;5095461;28;20618;-45
2023/04/06 05:42:36;;;;;;;6.47;0.63;;;;;;;;;;5089412;28;20122;-45
2023/04/06 05:45:04;;;;;;;8.95;0.75;;;;;;;;;;5088348;28;20077;-45
2023/04/06 05:47:32;;;;;;;8.80;2.00;;;;;;;;;;5087327;28;20115;-44
2023/04/06 05:50:00;;;;;;;6.03;1.05;;;;;;;;;;5086947;28;20200;-42
2023/04/06 05:52:28;;;;;;;6.90;0.80;;;;;;;;;;5085399;28;20032;-45
2023/04/06 05:54:56;;;;;;;4.93;0.93;;;;;;;;;;5080778;28;20054;-44
2023/04/06 05:57:23;;;;;;;5.93;0.82;;;;;;;;;;5090857;28;20073;-42
2023/04/06 05:59:52;;;;;;;8.50;0.73;;;;;;;;;;5083529;28;20074;-43
2023/04/06 06:02:20;;;;;;;7.28;0.90;;;;;;;;;;5083102;28;20146;-44
2023/04/06 06:04:48;;;;;;;6.80;0.60;;;;;;;;;;5077390;28;20059;-44
2023/04/06 06:07:16;;;;;;;12.98;0.95;;;;;;;;;;5095490;28;20047;-43
2023/04/06 06:09:43;;;;;;;6.75;1.17;;;;;;;;;;5084823;28;20472;-42
2023/04/06 06:12:13;;;;;;;6.23;0.77;;;;;;;;;;5088383;28;20089;-45
2023/04/06 06:14:41;;;;;;;13.15;1.23;;;;;;;;;;5091593;28;20115;-47
2023/04/06 06:17:10;;;;;;;4.72;0.90;;;;;;;;;;5081056;28;20047;-44
2023/04/06 06:19:38;;;;;;;9.95;1.00;;;;;;;;;;5074779;28;20128;-43
2023/04/06 06:22:06;;;;;;;8.02;1.00;;;;;;;;;;5079802;28;20588;-43
2023/04/06 06:24:35;;;;;;;7.57;0.70;;;;;;;;;;5079247;28;20055;-45
2023/04/06 06:27:02;;;;;;;11.57;1.58;;;;;;;;;;5078734;28;20063;-44
2023/04/06 06:29:30;;;;;;;8.48;1.38;;;;;;;;;;5093337;28;20123;-43
2023/04/06 06:31:58;;;;;;;13.38;1.52;;;;;;;;;;5083751;28;20065;-44
2023/04/06 06:34:28;;;;;;;7.13;1.05;;;;;;;;;;5090166;28;20046;-45
2023/04/06 06:36:55;;;;;;;9.10;1.23;;;;;;;;;;5089450;27;20529;-44
2023/04/06 06:39:23;;;;;;;11.02;1.30;;;;;;;;;;5086360;28;20477;-44
2023/04/06 06:41:50;;;;;;;9.02;1.95;;;;;;;;;;5079832;28;20078;-43
2023/04/06 06:44:18;;;;;;;7.05;1.17;;;;;;;;;;5086705;28;20075;-44
2023/04/06 06:46:46;;;;;;;8.88;1.13;;;;;;;;;;5082349;28;20040;-44
2023/04/06 06:49:14;;;;;;;12.27;1.37;;;;;;;;;;5088756;28;20114;-45
2023/04/06 06:51:43;;;;;;;8.93;1.67;;;;;;;;;;5086365;28;20068;-44
2023/04/06 06:54:10;;;;;;;6.50;1.35;;;;;;;;;;5082373;28;20093;-43
2023/04/06 06:56:38;;;;;;;6.55;1.73;;;;;;;;;;5076804;28;20340;-46
2023/04/06 06:59:06;;;;;;;6.03;1.33;;;;;;;;;;5083320;28;20047;-46
2023/04/06 07:01:34;;;;;;;10.90;1.60;;;;;;;;;;5080567;28;20068;-43
2023/04/06 07:04:02;;;;;;;6.10;1.10;;;;;;;;;;5074559;28;20095;-43
2023/04/06 07:06:31;;;;;;;11.02;1.80;;;;;;;;;;5087589;28;20046;-42
2023/04/06 07:08:59;;;;;;;7.68;1.67;;;;;;;;;;5100450;27;20134;-43
2023/04/06 07:11:27;;;;;;;12.10;2.05;;;;;;;;;;5078587;28;20053;-43
2023/04/06 07:13:55;;;;;;;10.37;2.20;;;;;;;;;;5080290;28;20047;-44
2023/04/06 07:16:22;;;;;;;8.80;2.00;;;;;;;;;;5083845;28;20071;-43
2023/04/06 07:18:50;;;;;;;12.73;2.40;;;;;;;;;;5088655;28;20047;-45
2023/04/06 07:21:18;;;;;;;11.63;2.38;;;;;;;;;;5072602;28;20694;-44
2023/04/06 07:23:47;;;;;;;11.07;2.28;;;;;;;;;;5090407;28;20586;-47
2023/04/06 07:26:17;;;;;;;8.23;2.00;;;;;;;;;;5078514;28;20036;-45
2023/04/06 07:28:45;;;;;;;13.27;3.13;;;;;;;;;;5084099;28;20388;-43
2023/04/06 07:31:12;;;;;;;12.63;2.67;;;;;;;;;;5088092;28;20154;-45
2023/04/06 07:33:40;;;;;;;9.85;2.53;;;;;;;;;;5075302;28;20732;-45
2023/04/06 07:36:08;;;;;;;11.48;3.25;;;;;;;;;;5085653;28;20064;-44
2023/04/06 07:38:35;;;;;;;11.60;3.63;;;;;;;;;;5072545;27;20553;-44
2023/04/06 07:41:04;;;;;;;16.38;3.70;;;;;;;;;;5090700;28;20081;-44
2023/04/06 07:43:33;;;;;;;12.32;2.70;;;;;;;;;;5082885;28;20039;-46
2023/04/06 07:46:01;;;;;;;9.32;1.92;;;;;;;;;;5087548;28;20164;-45
2023/04/06 07:48:28;;;;;;;9.65;1.70;;;;;;;;;;5084386;28;20263;-43
2023/04/06 07:51:01;;;;;;;7.33;1.77;;;;;;;;;;5092495;28;20031;-42
2023/04/06 07:53:30;;;;;;;12.38;1.55;;;;;;;;;;5082484;28;20123;-43
2023/04/06 07:55:59;;;;;;;7.70;1.67;;;;;;;;;;5083114;28;20032;-44
2023/04/06 07:58:27;;;;;;;7.53;1.30;;;;;;;;;;5068800;28;20043;-44
2023/04/06 08:00:57;;;;;;;10.93;1.25;;;;;;;;;;5076297;28;20040;-44
2023/04/06 08:03:26;;;;;;;4.13;0.73;;;;;;;;;;5084322;28;20035;-45
2023/04/06 08:05:54;;;;;;;6.40;1.45;;;;;;;;;;5080309;28;20055;-43
2023/04/06 08:08:22;;;;;;;5.65;1.17;;;;;;;;;;5088482;28;20550;-43
2023/04/06 08:10:50;;;;;;;9.43;1.88;;;;;;;;;;5084571;28;20732;-45
2023/04/06 08:13:18;;;;;;;9.65;1.95;;;;;;;;;;5084443;28;20506;-43
2023/04/06 08:15:45;;;;;;;10.17;2.40;;;;;;;;;;5073806;28;20126;-43
2023/04/06 08:18:15;;;;;;;9.68;1.58;;;;;;;;;;5091243;28;20064;-44
2023/04/06 08:20:42;;;;;;;10.15;2.15;;;;;;;;;;5085657;28;20071;-44
2023/04/06 08:23:10;;;;;;;8.57;2.13;;;;;;;;;;5088479;28;20087;-43
2023/04/06 08:25:38;;;;;;;6.70;1.27;;;;;;;;;;4374947;27;10000313;-43
2023/04/06 08:28:06;;;;;;;10.32;1.75;;;;;;;;;;5077504;28;20106;-43
2023/04/06 08:30:33;;;;;;;12.07;1.73;;;;;;;;;;5076253;28;20436;-47
2023/04/06 08:33:01;;;;;;;8.23;1.83;;;;;;;;;;5088322;28;20082;-43
2023/04/06 08:35:30;;;;;;;10.18;1.42;;;;;;;;;;5085803;28;20138;-44
2023/04/06 08:37:58;;;;;;;8.27;1.77;;;;;;;;;;4739900;28;10000245;-44
2023/04/06 08:40:27;;;;;;;6.68;1.52;;;;;;;;;;5060699;27;20100;-42
2023/04/06 08:42:56;;;;;;;7.55;1.60;;;;;;;;;;5068126;28;20115;-42
2023/04/06 08:45:24;;;;;;;10.18;1.88;;;;;;;;;;5070805;27;20036;-44
2023/04/06 08:47:53;;;;;;;8.37;1.13;;;;;;;;;;5070650;28;20052;-45
2023/04/06 08:50:21;;;;;;;10.57;1.88;;;;;;;;;;5064350;27;20345;-43
2023/04/06 08:52:50;;;;;;;6.40;1.05;;;;;;;;;;5069500;28;20184;-42
2023/04/06 08:55:18;;;;;;;5.57;0.60;;;;;;;;;;5086647;28;20032;-46
2023/04/06 08:57:46;;;;;;;8.80;1.20;;;;;;;;;;5086637;28;20035;-44
2023/04/06 09:00:14;;;;;;;5.73;1.20;;;;;;;;;;5090691;28;20047;-46
2023/04/06 09:02:46;;;;;;;5.45;0.90;;;;;;;;;;5091750;28;20678;-44
2023/04/06 09:05:13;;;;;;;11.50;1.38;;;;;;;;;;5091376;28;20062;-44
2023/04/06 09:07:42;;;;;;;7.05;1.27;;;;;;;;;;5084401;28;20044;-43
2023/04/06 09:10:11;;;;;;;6.90;1.52;;;;;;;;;;5092306;28;20040;-45
2023/04/06 09:12:38;;;;;;;8.40;1.03;;;;;;;;;;5080919;28;20577;-44
2023/04/06 09:15:18;;;;;;;4.60;0.88;;;;;;;;;;5091622;28;20562;-45
2023/04/06 09:17:48;;;;;;;3.53;0.50;;;;;;;;;;5089056;28;20494;-47
2023/04/06 09:20:22;;;;;;;4.90;0.77;;;;;;;;;;5105509;27;20479;-43
2023/04/06 09:22:50;;;;;;;4.50;0.80;;;;;;;;;;5082586;28;20079;-45
2023/04/06 09:25:22;;;;;;;4.07;0.73;;;;;;;;;;5092089;28;20105;-43
2023/04/06 09:27:58;;;;;;;6.60;0.98;;;;;;;;;;5086282;28;20040;-44
2023/04/06 09:30:26;;;;;;;5.43;1.00;;;;;;;;;;5079886;28;20192;-47
2023/04/06 09:32:55;;;;;;;3.08;0.40;;;;;;;;;;5079052;28;20496;-43
2023/04/06 09:35:23;;;;;;;4.65;0.80;;;;;;;;;;5084919;28;20846;-45
2023/04/06 09:37:51;;;;;;;4.33;0.73;;;;;;;;;;5086239;27;20046;-44
2023/04/06 09:40:21;;;;;;;4.63;0.63;;;;;;;;;;5083797;28;20046;-45
2023/04/06 09:42:51;;;;;;;2.90;0.45;;;;;;;;;;5091847;28;20078;-44
2023/04/06 09:45:20;;;;;;;5.63;0.93;;;;;;;;;;5081303;28;21535;-43
2023/04/06 09:47:49;;;;;;;3.40;0.43;;;;;;;;;;5083382;28;20124;-46
2023/04/06 09:50:18;;;;;;;3.77;0.60;;;;;;;;;;5087116;28;20126;-47
2023/04/06 09:52:48;;;;;;;5.30;0.60;;;;;;;;;;5090495;28;20505;-45
2023/04/06 09:55:21;;;;;;;4.10;0.40;;;;;;;;;;5083512;28;20124;-44
2023/04/06 09:58:13;;;;;;;4.78;0.95;;;;;;;;;;5086986;28;20040;-45
2023/04/06 10:00:43;;;;;;;4.70;0.68;;;;;;;;;;5086021;28;20387;-44
2023/04/06 10:03:16;;;;;;;4.20;0.50;;;;;;;;;;5080503;28;20512;-49
2023/04/06 10:05:47;;;;;;;2.78;0.40;;;;;;;;;;5087866;28;20549;-44
2023/04/06 10:08:16;;;;;;;3.15;0.30;;;;;;;;;;5089025;28;20508;-45
2023/04/06 10:10:44;;;;;;;5.85;0.70;;;;;;;;;;5084408;28;20118;-44
2023/04/06 10:13:13;;;;;;;2.85;0.50;;;;;;;;;;5089560;28;20067;-44
2023/04/06 10:15:42;;;;;;;3.23;0.63;;;;;;;;;;5086485;28;20070;-44
2023/04/06 10:18:10;;;;;;;4.45;0.50;;;;;;;;;;5088707;28;20044;-45
2023/04/06 10:20:40;;;;;;;2.78;0.52;;;;;;;;;;5087098;28;20499;-44
2023/04/06 10:23:10;;;;;;;3.05;0.50;;;;;;;;;;5089902;28;20100;-46
2023/04/06 10:25:38;;;;;;;4.50;0.52;;;;;;;;;;5081824;28;20066;-44
2023/04/06 10:28:07;;;;;;;4.70;0.60;;;;;;;;;;5090299;28;20444;-45
2023/04/06 10:30:42;;;;;;;2.67;0.40;;;;;;;;;;5074181;28;20050;-47
2023/04/06 10:33:17;;;;;;;4.22;0.40;;;;;;;;;;5087367;28;20044;-46
2023/04/06 10:35:45;;;;;;;6.97;0.73;;;;;;;;;;5078122;28;20081;-46
2023/04/06 10:38:14;;;;;;;3.43;0.50;;;;;;;;;;4737867;27;10000702;-43
2023/04/06 10:40:42;;;;;;;3.47;0.65;;;;;;;;;;5081255;28;20561;-44
2023/04/06 10:43:11;;;;;;;2.17;0.40;;;;;;;;;;5082946;28;20523;-46
2023/04/06 10:45:42;;;;;;;3.20;0.30;;;;;;;;;;5083458;28;20039;-44
2023/04/06 10:48:15;;;;;;;4.85;0.65;;;;;;;;;;5094718;28;20232;-44
2023/04/06 10:50:45;;;;;;;3.03;0.30;;;;;;;;;;5086318;28;20097;-45
2023/04/06 10:53:12;;;;;;;3.05;0.50;;;;;;;;;;5078235;28;20305;-47
2023/04/06 10:55:41;;;;;;;5.13;0.82;;;;;;;;;;5093780;28;20040;-49
2023/04/06 10:58:09;;;;;;;2.97;0.50;;;;;;;;;;5062683;28;20035;-43
2023/04/06 11:00:44;;;;;;;2.67;0.55;;;;;;;;;;5069086;28;20059;-45
2023/04/06 11:03:16;;;;;;;3.30;0.50;;;;;;;;;;5059827;28;20036;-44
2023/04/06 11:05:44;;;;;;;4.07;0.85;;;;;;;;;;5057071;28;20059;-43
2023/04/06 11:08:23;;;;;;;4.78;0.50;;;;;;;;;;5066967;28;20084;-44
2023/04/06 11:10:50;;;;;;;3.07;0.60;;;;;;;;;;5054097;28;20547;-44
2023/04/06 11:13:18;;;;;;;2.70;0.45;;;;;;;;;;5062430;28;20044;-45
2023/04/06 11:15:46;;;;;;;4.55;0.52;;;;;;;;;;5064928;28;20415;-46
2023/04/06 11:18:17;;;;;;;3.97;0.52;;;;;;;;;;5063324;28;20040;-44
2023/04/06 11:20:48;;;;;;;4.60;0.52;;;;;;;;;;5058461;28;20053;-45
2023/04/06 11:23:23;;;;;;;3.43;0.50;;;;;;;;;;5065893;28;20048;-45
2023/04/06 11:25:51;;;;;;;3.53;0.68;;;;;;;;;;5067814;28;20669;-45
2023/04/06 11:28:21;;;;;;;3.80;0.52;;;;;;;;;;5075170;28;20051;-45
2023/04/06 11:30:49;;;;;;;4.05;0.80;;;;;;;;;;5063678;28;20088;-46
2023/04/06 11:33:22;;;;;;;2.80;0.40;;;;;;;;;;5070021;28;20054;-46
2023/04/06 11:35:50;;;;;;;2.43;0.40;;;;;;;;;;5066096;28;20067;-45
2023/04/06 11:38:19;;;;;;;2.00;0.30;;;;;;;;;;5071668;28;20093;-47
2023/04/06 11:40:46;;;;;;;2.33;0.40;;;;;;;;;;5056909;28;20039;-44
2023/04/06 11:43:15;;;;;;;2.83;0.30;;;;;;;;;;5068326;28;20106;-44
2023/04/06 11:45:43;;;;;;;3.03;0.40;;;;;;;;;;5068575;28;20063;-43
2023/04/06 11:48:19;;;;;;;4.43;0.37;;;;;;;;;;5069600;28;20112;-44
2023/04/06 11:50:49;;;;;;;3.15;0.40;;;;;;;;;;5053718;28;20050;-44
2023/04/06 11:53:17;;;;;;;4.28;0.50;;;;;;;;;;5064779;28;20043;-45
2023/04/06 11:55:47;;;;;;;5.80;0.70;;;;;;;;;;5065674;28;20040;-45
2023/04/06 11:58:15;;;;;;;2.35;0.32;;;;;;;;;;5037363;28;20378;-46
2023/04/06 12:00:45;;;;;;;2.90;0.30;;;;;;;;;;5060497;28;20489;-45
2023/04/06 12:03:15;;;;;;;2.83;0.50;;;;;;;;;;5056740;28;20039;-44
2023/04/06 12:05:45;;;;;;;3.63;0.32;;;;;;;;;;5067301;28;20576;-47
2023/04/06 12:08:14;;;;;;;2.45;0.45;;;;;;;;;;5063759;28;20478;-45
2023/04/06 12:10:42;;;;;;;4.85;0.60;;;;;;;;;;5063004;28;20227;-43
2023/04/06 12:13:10;;;;;;;6.17;0.60;;;;;;;;;;5064298;28;20290;-45
2023/04/06 12:15:38;;;;;;;2.85;0.40;;;;;;;;;;5078052;28;20489;-47
2023/04/06 12:18:06;;;;;;;2.28;0.30;;;;;;;;;;5070535;28;20120;-46
2023/04/06 12:20:34;;;;;;;3.55;0.30;;;;;;;;;;5060441;28;20050;-44
2023/04/06 12:23:02;;;;;;;1.98;0.30;;;;;;;;;;5064822;28;20052;-45
2023/04/06 12:25:31;;;;;;;2.80;0.37;;;;;;;;;;5067960;28;20036;-46
2023/04/06 12:27:58;;;;;;;1.98;0.28;;;;;;;;;;5075704;27;20075;-46
2023/04/06 12:30:27;;;;;;;2.13;0.20;;;;;;;;;;5059509;28;20124;-43
2023/04/06 12:32:54;;;;;;;2.10;0.30;;;;;;;;;;4719945;27;9999757;-46
2023/04/06 12:35:22;;;;;;;1.90;0.30;;;;;;;;;;5066761;28;20306;-45
2023/04/06 12:37:50;;;;;;;1.83;0.30;;;;;;;;;;5074546;27;20075;-45
2023/04/06 12:40:18;;;;;;;1.90;0.20;;;;;;;;;;5062761;28;20092;-44
2023/04/06 12:42:47;;;;;;;1.60;0.20;;;;;;;;;;5075013;28;20048;-45
2023/04/06 12:45:16;;;;;;;2.92;0.57;;;;;;;;;;5072627;28;20081;-47
2023/04/06 12:47:43;;;;;;;2.03;0.30;;;;;;;;;;5076518;28;20634;-45
2023/04/06 12:50:11;;;;;;;2.42;0.30;;;;;;;;;;5058136;27;20090;-46
2023/04/06 12:52:39;;;;;;;1.85;0.30;;;;;;;;;;5078793;28;20039;-44
2023/04/06 12:55:07;;;;;;;2.30;0.40;;;;;;;;;;5066944;28;20058;-46
2023/04/06 12:57:36;;;;;;;3.55;0.70;;;;;;;;;;5073696;28;20047;-45
2023/04/06 13:00:07;;;;;;;3.60;0.43;;;;;;;;;;5064843;28;20040;-46
2023/04/06 13:02:36;;;;;;;4.43;0.45;;;;;;;;;;5073906;28;20150;-43
2023/04/06 13:05:04;;;;;;;4.05;0.45;;;;;;;;;;5072874;28;20400;-44
2023/04/06 13:07:32;;;;;;;3.47;0.50;;;;;;;;;;5072213;28;20137;-45
2023/04/06 13:10:00;;;;;;;3.88;0.50;;;;;;;;;;5064321;28;20150;-45
2023/04/06 13:12:27;;;;;;;5.10;0.63;;;;;;;;;;5060087;28;20522;-43
2023/04/06 13:14:55;;;;;;;4.18;0.80;;;;;;;;;;5071622;28;20047;-45
2023/04/06 13:17:24;;;;;;;4.53;0.40;;;;;;;;;;4713545;27;10000546;-45
2023/04/06 13:19:52;;;;;;;4.80;0.40;;;;;;;;;;5062788;28;20051;-44
2023/04/06 13:22:20;;;;;;;2.10;0.32;;;;;;;;;;5056761;28;20052;-44
2023/04/06 13:24:48;;;;;;;2.42;0.40;;;;;;;;;;5093230;27;20548;-44
2023/04/06 13:27:16;;;;;;;2.40;0.30;;;;;;;;;;5069650;28;20271;-44
2023/04/06 13:29:44;;;;;;;2.13;0.30;;;;;;;;;;5080586;28;20122;-44
2023/04/06 13:32:13;;;;;;;2.17;0.30;;;;;;;;;;5065760;28;20035;-44
2023/04/06 13:34:44;;;;;;;1.73;0.25;;;;;;;;;;5088997;28;20043;-45
2023/04/06 13:37:12;;;;;;;3.20;0.30;;;;;;;;;;5064837;28;21152;-47
2023/04/06 13:39:40;;;;;;;5.73;0.20;;;;;;;;;;5076319;28;20118;-46
2023/04/06 13:42:09;;;;;;;3.15;0.20;;;;;;;;;;5087625;27;20093;-43
2023/04/06 13:44:37;;;;;;;1.58;0.25;;;;;;;;;;5085378;28;20040;-47
2023/04/06 13:47:05;;;;;;;1.67;0.30;;;;;;;;;;5089895;28;20070;-44
2023/04/06 13:49:33;;;;;;;1.40;0.28;;;;;;;;;;5086771;28;20833;-46
2023/04/06 13:52:03;;;;;;;3.87;0.30;;;;;;;;;;5087520;28;20127;-50
2023/04/06 13:54:31;;;;;;;1.48;0.22;;;;;;;;;;5096486;27;20123;-44
2023/04/06 13:57:00;;;;;;;2.13;0.30;;;;;;;;;;5084686;28;20036;-45
2023/04/06 13:59:32;;;;;;;2.58;0.25;;;;;;;;;;5082317;28;20067;-44
2023/04/06 14:02:01;;;;;;;1.58;0.30;;;;;;;;;;5082075;28;20058;-44
2023/04/06 14:04:28;;;;;;;2.80;0.30;;;;;;;;;;5083290;28;20513;-44
2023/04/06 14:06:56;;;;;;;2.05;0.30;;;;;;;;;;5085225;28;20096;-46
2023/04/06 14:09:25;;;;;;;1.48;0.32;;;;;;;;;;5066326;28;20035;-45
2023/04/06 14:11:53;;;;;;;1.35;0.20;;;;;;;;;;5075887;28;20062;-45
2023/04/06 14:14:21;;;;;;;1.50;0.20;;;;;;;;;;5076547;28;20071;-44
2023/04/06 14:16:48;;;;;;;2.57;0.30;;;;;;;;;;5083032;28;20105;-45
2023/04/06 14:19:18;;;;;;;1.90;0.30;;;;;;;;;;5090888;28;20069;-46
2023/04/06 14:21:45;;;;;;;1.55;0.20;;;;;;;;;;5082186;28;20065;-44
2023/04/06 14:24:14;;;;;;;2.28;0.35;;;;;;;;;;5090291;28;20089;-44
2023/04/06 14:26:44;;;;;;;1.77;0.30;;;;;;;;;;5072994;28;20063;-47
2023/04/06 14:29:11;;;;;;;2.13;0.47;;;;;;;;;;5092037;28;20111;-45
2023/04/06 14:31:39;;;;;;;2.05;0.30;;;;;;;;;;5079624;28;20036;-48
2023/04/06 14:34:07;;;;;;;1.88;0.30;;;;;;;;;;5084629;28;20054;-45
2023/04/06 14:36:37;;;;;;;2.13;0.50;;;;;;;;;;5081229;28;20075;-46
2023/04/06 14:39:06;;;;;;;2.97;0.40;;;;;;;;;;5082384;28;20430;-45
2023/04/06 14:41:34;;;;;;;1.97;0.30;;;;;;;;;;5090218;28;20074;-47
2023/04/06 14:44:04;;;;;;;1.70;0.30;;;;;;;;;;5074613;28;20058;-47
2023/04/06 14:46:32;;;;;;;1.65;0.20;;;;;;;;;;5086620;28;20741;-46